sensor_id;sensor_type;location;lat;lon;timestamp;pressure;altitude;pressure_sealevel;temperature;humidity
65880;BME280;52661;51.364;6.054;2023-04-09T00:00:41;102182.53;;;10.25;100.00
65880;BME280;52661;51.364;6.054;2023-04-09T00:03:06;102186.03;;;10.25;100.00
65880;BME280;52661;51.364;6.054;2023-04-09T00:05:32;102177.00;;;10.21;100.00
65880;BME280;52661;51.364;6.054;2023-04-09T00:07:57;102181.56;;;10.17;100.00
65880;BME280;52661;51.364;6.054;2023-04-09T00:10:23;102177.47;;;10.23;100.00
65880;BME280;52661;51.364;6.054;2023-04-09T00:12:48;102175.59;;;10.27;100.00
65880;BME280;52661;51.364;6.054;2023-04-09T00:15:13;102177.81;;;10.22;100.00
65880;BME280;52661;51.364;6.054;2023-04-09T00:17:39;102186.75;;;10.22;100.00
65880;BME280;52661;51.364;6.054;2023-04-09T00:20:05;102176.84;;;10.14;100.00
65880;BME280;52661;51.364;6.054;2023-04-09T00:22:31;102182.47;;;10.09;100.00
65880;BME280;52661;51.364;6.054;2023-04-09T00:24:57;102173.66;;;10.12;100.00
65880;BME280;52661;51.364;6.054;2023-04-09T00:27:22;102171.75;;;10.13;100.00
65880;BME280;52661;51.364;6.054;2023-04-09T00:29:47;102169.16;;;10.16;100.00
65880;BME280;52661;51.364;6.054;2023-04-09T00:32:13;102160.22;;;10.16;100.00
65880;BME280;52661;51.364;6.054;2023-04-09T00:34:38;102160.09;;;10.12;100.00
65880;BME280;52661;51.364;6.054;2023-04-09T00:37:04;102157.56;;;10.04;100.00
65880;BME280;52661;51.364;6.054;2023-04-09T00:39:30;102157.13;;;10.02;100.00
65880;BME280;52661;51.364;6.054;2023-04-09T00:41:59;102164.47;;;10.01;100.00
65880;BME280;52661;51.364;6.054;2023-04-09T00:44:27;102159.66;;;9.95;100.00
65880;BME280;52661;51.364;6.054;2023-04-09T00:46:53;102155.44;;;9.97;100.00
65880;BME280;52661;51.364;6.054;2023-04-09T00:49:18;102151.91;;;9.81;100.00
65880;BME280;52661;51.364;6.054;2023-04-09T00:51:45;102144.84;;;9.76;100.00
65880;BME280;52661;51.364;6.054;2023-04-09T00:54:11;102146.13;;;9.67;100.00
65880;BME280;52661;51.364;6.054;2023-04-09T00:56:37;102135.97;;;9.64;100.00
65880;BME280;52661;51.364;6.054;2023-04-09T00:59:02;102139.91;;;9.51;100.00
65880;BME280;52661;51.364;6.054;2023-04-09T01:01:28;102140.03;;;9.42;100.00
65880;BME280;52661;51.364;6.054;2023-04-09T01:03:53;102139.25;;;9.42;100.00
65880;BME280;52661;51.364;6.054;2023-04-09T01:06:42;102149.06;;;9.46;100.00
65880;BME280;52661;51.364;6.054;2023-04-09T01:09:25;102145.88;;;9.44;100.00
65880;BME280;52661;51.364;6.054;2023-04-09T01:14:31;102143.19;;;9.44;100.00
65880;BME280;52661;51.364;6.054;2023-04-09T01:17:03;102134.53;;;9.38;100.00
65880;BME280;52661;51.364;6.054;2023-04-09T01:20:04;102128.63;;;9.21;100.00
65880;BME280;52661;51.364;6.054;2023-04-09T01:25:03;102118.31;;;8.86;100.00
65880;BME280;52661;51.364;6.054;2023-04-09T01:27:43;102121.50;;;8.76;100.00
65880;BME280;52661;51.364;6.054;2023-04-09T01:30:13;102126.50;;;8.74;100.00
65880;BME280;52661;51.364;6.054;2023-04-09T01:32:40;102116.66;;;8.82;100.00
65880;BME280;52661;51.364;6.054;2023-04-09T01:35:07;102115.31;;;8.76;100.00
65880;BME280;52661;51.364;6.054;2023-04-09T01:37:34;102115.88;;;8.81;100.00
65880;BME280;52661;51.364;6.054;2023-04-09T01:40:00;102126.13;;;8.76;100.00
65880;BME280;52661;51.364;6.054;2023-04-09T01:42:26;102123.19;;;8.81;100.00
65880;BME280;52661;51.364;6.054;2023-04-09T01:44:53;102117.13;;;8.72;100.00
65880;BME280;52661;51.364;6.054;2023-04-09T01:47:19;102121.66;;;8.68;100.00
65880;BME280;52661;51.364;6.054;2023-04-09T01:49:45;102120.88;;;8.67;100.00
65880;BME280;52661;51.364;6.054;2023-04-09T01:52:11;102118.16;;;8.67;100.00
65880;BME280;52661;51.364;6.054;2023-04-09T01:54:36;102118.84;;;8.64;100.00
65880;BME280;52661;51.364;6.054;2023-04-09T01:57:02;102123.22;;;8.69;100.00
65880;BME280;52661;51.364;6.054;2023-04-09T01:59:27;102120.50;;;8.69;100.00
65880;BME280;52661;51.364;6.054;2023-04-09T02:01:58;102118.25;;;8.71;100.00
65880;BME280;52661;51.364;6.054;2023-04-09T02:04:30;102118.16;;;8.43;100.00
65880;BME280;52661;51.364;6.054;2023-04-09T02:07:04;102107.00;;;8.32;100.00
65880;BME280;52661;51.364;6.054;2023-04-09T02:09:31;102116.34;;;8.23;100.00
65880;BME280;52661;51.364;6.054;2023-04-09T02:12:02;102110.63;;;8.24;100.00
65880;BME280;52661;51.364;6.054;2023-04-09T02:14:30;102112.97;;;8.14;100.00
65880;BME280;52661;51.364;6.054;2023-04-09T02:16:56;102117.59;;;8.25;100.00
65880;BME280;52661;51.364;6.054;2023-04-09T02:19:22;102111.38;;;8.25;100.00
65880;BME280;52661;51.364;6.054;2023-04-09T02:21:47;102117.94;;;8.36;100.00
65880;BME280;52661;51.364;6.054;2023-04-09T02:24:13;102116.72;;;8.46;100.00
65880;BME280;52661;51.364;6.054;2023-04-09T02:26:38;102108.94;;;8.44;100.00
65880;BME280;52661;51.364;6.054;2023-04-09T02:29:03;102112.97;;;8.50;100.00
65880;BME280;52661;51.364;6.054;2023-04-09T02:31:29;102114.56;;;8.51;100.00
65880;BME280;52661;51.364;6.054;2023-04-09T02:33:54;102114.69;;;8.43;100.00
65880;BME280;52661;51.364;6.054;2023-04-09T02:36:19;102107.00;;;8.45;100.00
65880;BME280;52661;51.364;6.054;2023-04-09T02:38:45;102109.03;;;8.48;100.00
65880;BME280;52661;51.364;6.054;2023-04-09T02:41:10;102108.94;;;8.32;100.00
65880;BME280;52661;51.364;6.054;2023-04-09T02:43:36;102101.72;;;8.24;100.00
65880;BME280;52661;51.364;6.054;2023-04-09T02:46:01;102105.19;;;8.12;100.00
65880;BME280;52661;51.364;6.054;2023-04-09T02:48:27;102095.06;;;8.09;100.00
65880;BME280;52661;51.364;6.054;2023-04-09T02:50:53;102097.41;;;7.99;100.00
65880;BME280;52661;51.364;6.054;2023-04-09T02:53:18;102086.69;;;7.90;100.00
65880;BME280;52661;51.364;6.054;2023-04-09T02:55:46;102093.91;;;7.98;100.00
65880;BME280;52661;51.364;6.054;2023-04-09T02:58:11;102088.84;;;7.84;100.00
65880;BME280;52661;51.364;6.054;2023-04-09T03:00:36;102089.81;;;7.68;100.00
65880;BME280;52661;51.364;6.054;2023-04-09T03:03:02;102089.69;;;7.64;100.00
65880;BME280;52661;51.364;6.054;2023-04-09T03:05:27;102082.34;;;7.53;100.00
65880;BME280;52661;51.364;6.054;2023-04-09T03:07:52;102081.81;;;7.59;100.00
65880;BME280;52661;51.364;6.054;2023-04-09T03:10:18;102088.25;;;7.67;100.00
65880;BME280;52661;51.364;6.054;2023-04-09T03:12:43;102089.50;;;7.69;100.00
65880;BME280;52661;51.364;6.054;2023-04-09T03:15:09;102087.94;;;7.80;100.00
65880;BME280;52661;51.364;6.054;2023-04-09T03:17:35;102090.41;;;7.73;100.00
65880;BME280;52661;51.364;6.054;2023-04-09T03:20:00;102092.19;;;7.81;100.00
65880;BME280;52661;51.364;6.054;2023-04-09T03:22:26;102089.28;;;7.86;100.00
65880;BME280;52661;51.364;6.054;2023-04-09T03:24:51;102087.81;;;7.77;100.00
65880;BME280;52661;51.364;6.054;2023-04-09T03:27:17;102087.94;;;7.80;100.00
65880;BME280;52661;51.364;6.054;2023-04-09T03:29:42;102080.06;;;7.87;100.00
65880;BME280;52661;51.364;6.054;2023-04-09T03:32:08;102085.47;;;8.00;100.00
65880;BME280;52661;51.364;6.054;2023-04-09T03:34:33;102080.28;;;7.95;100.00
65880;BME280;52661;51.364;6.054;2023-04-09T03:36:58;102076.22;;;8.01;100.00
65880;BME280;52661;51.364;6.054;2023-04-09T03:39:23;102077.69;;;7.98;100.00
65880;BME280;52661;51.364;6.054;2023-04-09T03:41:49;102081.28;;;7.90;100.00
65880;BME280;52661;51.364;6.054;2023-04-09T03:44:14;102076.88;;;7.85;100.00
65880;BME280;52661;51.364;6.054;2023-04-09T03:46:40;102078.94;;;7.88;100.00
65880;BME280;52661;51.364;6.054;2023-04-09T03:49:05;102079.28;;;7.87;100.00
65880;BME280;52661;51.364;6.054;2023-04-09T03:51:30;102087.81;;;7.89;100.00
65880;BME280;52661;51.364;6.054;2023-04-09T03:53:56;102072.38;;;7.89;100.00
65880;BME280;52661;51.364;6.054;2023-04-09T03:56:21;102079.28;;;7.87;100.00
65880;BME280;52661;51.364;6.054;2023-04-09T03:58:47;102082.41;;;7.77;100.00
65880;BME280;52661;51.364;6.054;2023-04-09T04:01:13;102084.88;;;7.70;100.00
65880;BME280;52661;51.364;6.054;2023-04-09T04:03:39;102078.09;;;7.52;100.00
65880;BME280;52661;51.364;6.054;2023-04-09T04:06:04;102079.06;;;7.47;100.00
65880;BME280;52661;51.364;6.054;2023-04-09T04:08:30;102079.88;;;7.60;100.00
65880;BME280;52661;51.364;6.054;2023-04-09T04:10:55;102080.00;;;7.63;100.00
65880;BME280;52661;51.364;6.054;2023-04-09T04:13:20;102084.31;;;7.76;100.00
65880;BME280;52661;51.364;6.054;2023-04-09T04:15:46;102084.53;;;7.71;100.00
65880;BME280;52661;51.364;6.054;2023-04-09T04:18:11;102084.75;;;7.78;100.00
65880;BME280;52661;51.364;6.054;2023-04-09T04:20:37;102081.16;;;7.74;100.00
65880;BME280;52661;51.364;6.054;2023-04-09T04:23:03;102081.16;;;7.74;100.00
65880;BME280;52661;51.364;6.054;2023-04-09T04:25:29;102083.41;;;7.72;100.00
65880;BME280;52661;51.364;6.054;2023-04-09T04:27:55;102086.13;;;7.72;100.00
65880;BME280;52661;51.364;6.054;2023-04-09T04:30:21;102075.75;;;7.74;100.00
65880;BME280;52661;51.364;6.054;2023-04-09T04:32:47;102075.94;;;7.57;100.00
65880;BME280;52661;51.364;6.054;2023-04-09T04:35:13;102073.78;;;7.51;100.00
65880;BME280;52661;51.364;6.054;2023-04-09T04:37:38;102077.63;;;7.50;100.00
65880;BME280;52661;51.364;6.054;2023-04-09T04:40:06;102081.22;;;7.54;100.00
65880;BME280;52661;51.364;6.054;2023-04-09T04:42:32;102084.56;;;7.38;100.00
65880;BME280;52661;51.364;6.054;2023-04-09T04:44:58;102084.72;;;7.21;100.00
65880;BME280;52661;51.364;6.054;2023-04-09T04:47:24;102080.47;;;7.00;100.00
65880;BME280;52661;51.364;6.054;2023-04-09T04:49:49;102084.56;;;6.85;100.00
65880;BME280;52661;51.364;6.054;2023-04-09T04:52:14;102087.53;;;6.92;100.00
65880;BME280;52661;51.364;6.054;2023-04-09T04:54:40;102083.31;;;7.03;100.00
65880;BME280;52661;51.364;6.054;2023-04-09T04:57:05;102080.09;;;6.89;100.00
65880;BME280;52661;51.364;6.054;2023-04-09T04:59:30;102077.00;;;6.78;100.00
65880;BME280;52661;51.364;6.054;2023-04-09T05:01:56;102077.53;;;6.72;100.00
65880;BME280;52661;51.364;6.054;2023-04-09T05:04:21;102071.22;;;6.68;100.00
65880;BME280;52661;51.364;6.054;2023-04-09T05:06:47;102073.50;;;6.78;100.00
65880;BME280;52661;51.364;6.054;2023-04-09T05:09:12;102073.59;;;6.90;100.00
65880;BME280;52661;51.364;6.054;2023-04-09T05:11:37;102074.00;;;6.80;100.00
65880;BME280;52661;51.364;6.054;2023-04-09T05:14:03;102073.84;;;6.76;100.00
65880;BME280;52661;51.364;6.054;2023-04-09T05:16:30;102076.88;;;6.75;100.00
65880;BME280;52661;51.364;6.054;2023-04-09T05:18:56;102065.59;;;6.73;100.00
65880;BME280;52661;51.364;6.054;2023-04-09T05:21:21;102077.78;;;6.79;100.00
65880;BME280;52661;51.364;6.054;2023-04-09T05:23:46;102064.19;;;6.75;100.00
65880;BME280;52661;51.364;6.054;2023-04-09T05:26:12;102074.69;;;6.68;100.00
65880;BME280;52661;51.364;6.054;2023-04-09T05:28:37;102075.81;;;6.67;100.00
65880;BME280;52661;51.364;6.054;2023-04-09T05:31:03;102077.19;;;6.73;100.00
65880;BME280;52661;51.364;6.054;2023-04-09T05:33:28;102069.88;;;6.74;100.00
65880;BME280;52661;51.364;6.054;2023-04-09T05:35:53;102067.19;;;6.74;100.00
65880;BME280;52661;51.364;6.054;2023-04-09T05:38:19;102071.41;;;6.83;100.00
65880;BME280;52661;51.364;6.054;2023-04-09T05:40:44;102062.69;;;6.99;100.00
65880;BME280;52661;51.364;6.054;2023-04-09T05:43:10;102066.03;;;6.83;100.00
65880;BME280;52661;51.364;6.054;2023-04-09T05:45:35;102064.47;;;6.94;100.00
65880;BME280;52661;51.364;6.054;2023-04-09T05:48:01;102066.78;;;6.84;100.00
65880;BME280;52661;51.364;6.054;2023-04-09T05:50:26;102063.56;;;6.70;100.00
65880;BME280;52661;51.364;6.054;2023-04-09T05:52:52;102056.66;;;6.81;100.00
65880;BME280;52661;51.364;6.054;2023-04-09T05:55:17;102067.56;;;6.84;100.00
65880;BME280;52661;51.364;6.054;2023-04-09T05:57:43;102064.22;;;6.87;100.00
65880;BME280;52661;51.364;6.054;2023-04-09T06:00:10;102071.28;;;7.01;100.00
65880;BME280;52661;51.364;6.054;2023-04-09T06:02:35;102069.81;;;7.03;100.00
65880;BME280;52661;51.364;6.054;2023-04-09T06:05:00;102064.53;;;7.07;100.00
65880;BME280;52661;51.364;6.054;2023-04-09T06:07:26;102068.28;;;7.14;100.00
65880;BME280;52661;51.364;6.054;2023-04-09T06:09:51;102078.28;;;7.14;100.00
65880;BME280;52661;51.364;6.054;2023-04-09T06:12:16;102073.69;;;7.14;100.00
65880;BME280;52661;51.364;6.054;2023-04-09T06:14:42;102075.53;;;7.22;100.00
65880;BME280;52661;51.364;6.054;2023-04-09T06:17:07;102082.22;;;7.16;100.00
65880;BME280;52661;51.364;6.054;2023-04-09T06:19:32;102074.41;;;7.23;100.00
65880;BME280;52661;51.364;6.054;2023-04-09T06:21:58;102069.44;;;7.25;100.00
65880;BME280;52661;51.364;6.054;2023-04-09T06:24:23;102084.44;;;7.35;100.00
65880;BME280;52661;51.364;6.054;2023-04-09T06:26:48;102090.19;;;7.33;100.00
65880;BME280;52661;51.364;6.054;2023-04-09T06:29:14;102089.16;;;7.38;100.00
65880;BME280;52661;51.364;6.054;2023-04-09T06:31:39;102095.38;;;7.38;100.00
65880;BME280;52661;51.364;6.054;2023-04-09T06:34:06;102096.28;;;7.42;100.00
65880;BME280;52661;51.364;6.054;2023-04-09T06:36:32;102091.34;;;7.45;100.00
65880;BME280;52661;51.364;6.054;2023-04-09T06:38:57;102098.78;;;7.48;100.00
65880;BME280;52661;51.364;6.054;2023-04-09T06:41:23;102102.06;;;7.53;100.00
65880;BME280;52661;51.364;6.054;2023-04-09T06:43:48;102106.47;;;7.58;100.00
65880;BME280;52661;51.364;6.054;2023-04-09T06:46:14;102107.50;;;7.65;100.00
65880;BME280;52661;51.364;6.054;2023-04-09T06:48:41;102109.41;;;7.65;100.00
65880;BME280;52661;51.364;6.054;2023-04-09T06:51:09;102112.47;;;7.75;100.00
65880;BME280;52661;51.364;6.054;2023-04-09T06:53:35;102111.66;;;7.75;100.00
65880;BME280;52661;51.364;6.054;2023-04-09T06:56:00;102113.16;;;7.84;100.00
65880;BME280;52661;51.364;6.054;2023-04-09T06:58:26;102112.16;;;8.01;100.00
65880;BME280;52661;51.364;6.054;2023-04-09T07:00:52;102110.38;;;8.05;100.00
65880;BME280;52661;51.364;6.054;2023-04-09T07:03:17;102104.88;;;8.14;100.00
65880;BME280;52661;51.364;6.054;2023-04-09T07:05:42;102112.97;;;8.14;100.00
65880;BME280;52661;51.364;6.054;2023-04-09T07:08:08;102117.13;;;8.11;100.00
65880;BME280;52661;51.364;6.054;2023-04-09T07:10:33;102110.16;;;8.22;100.00
65880;BME280;52661;51.364;6.054;2023-04-09T07:12:58;102108.59;;;8.33;100.00
65880;BME280;52661;51.364;6.054;2023-04-09T07:15:24;102105.09;;;8.45;100.00
65880;BME280;52661;51.364;6.054;2023-04-09T07:17:49;102111.75;;;8.60;100.00
65880;BME280;52661;51.364;6.054;2023-04-09T07:20:15;102110.72;;;8.64;100.00
65880;BME280;52661;51.364;6.054;2023-04-09T07:22:40;102113.66;;;8.71;100.00
65880;BME280;52661;51.364;6.054;2023-04-09T07:25:06;102112.69;;;8.79;100.00
65880;BME280;52661;51.364;6.054;2023-04-09T07:27:32;102111.78;;;8.87;100.00
65880;BME280;52661;51.364;6.054;2023-04-09T07:29:58;102118.59;;;8.81;100.00
65880;BME280;52661;51.364;6.054;2023-04-09T07:32:24;102114.84;;;8.86;100.00
65880;BME280;52661;51.364;6.054;2023-04-09T07:34:51;102125.31;;;9.00;100.00
65880;BME280;52661;51.364;6.054;2023-04-09T07:37:17;102122.69;;;9.03;100.00
65880;BME280;52661;51.364;6.054;2023-04-09T07:39:42;102120.41;;;9.05;100.00
65880;BME280;52661;51.364;6.054;2023-04-09T07:42:07;102119.28;;;9.18;100.00
65880;BME280;52661;51.364;6.054;2023-04-09T07:44:36;102127.03;;;9.20;100.00
65880;BME280;52661;51.364;6.054;2023-04-09T07:47:03;102126.44;;;9.26;100.00
65880;BME280;52661;51.364;6.054;2023-04-09T07:49:28;102129.59;;;9.28;100.00
65880;BME280;52661;51.364;6.054;2023-04-09T07:51:53;102128.59;;;9.49;100.00
65880;BME280;52661;51.364;6.054;2023-04-09T07:54:19;102130.63;;;9.52;100.00
65880;BME280;52661;51.364;6.054;2023-04-09T07:56:45;102133.59;;;9.62;100.00
65880;BME280;52661;51.364;6.054;2023-04-09T07:59:11;102135.47;;;9.58;100.00
65880;BME280;52661;51.364;6.054;2023-04-09T08:01:36;102132.75;;;9.58;100.00
65880;BME280;52661;51.364;6.054;2023-04-09T08:04:02;102130.03;;;9.58;100.00
65880;BME280;52661;51.364;6.054;2023-04-09T08:06:27;102128.47;;;9.57;100.00
65880;BME280;52661;51.364;6.054;2023-04-09T08:08:53;102128.59;;;9.76;100.00
65880;BME280;52661;51.364;6.054;2023-04-09T08:11:18;102132.50;;;9.79;100.00
65880;BME280;52661;51.364;6.054;2023-04-09T08:13:52;102129.75;;;9.91;100.00
65880;BME280;52661;51.364;6.054;2023-04-09T08:16:18;102130.34;;;10.00;100.00
65880;BME280;52661;51.364;6.054;2023-04-09T08:18:43;102131.72;;;10.10;100.00
65880;BME280;52661;51.364;6.054;2023-04-09T08:21:09;102130.00;;;10.17;100.00
65880;BME280;52661;51.364;6.054;2023-04-09T08:23:34;102129.31;;;10.20;100.00
65880;BME280;52661;51.364;6.054;2023-04-09T08:26:00;102126.69;;;10.24;100.00
65880;BME280;52661;51.364;6.054;2023-04-09T08:28:25;102125.44;;;10.37;100.00
65880;BME280;52661;51.364;6.054;2023-04-09T08:30:50;102130.66;;;10.46;100.00
65880;BME280;52661;51.364;6.054;2023-04-09T08:33:16;102123.31;;;10.62;100.00
65880;BME280;52661;51.364;6.054;2023-04-09T08:35:42;102125.75;;;10.67;100.00
65880;BME280;52661;51.364;6.054;2023-04-09T08:38:07;102125.47;;;10.72;100.00
65880;BME280;52661;51.364;6.054;2023-04-09T08:40:33;102120.81;;;10.72;100.00
65880;BME280;52661;51.364;6.054;2023-04-09T08:43:05;102124.75;;;10.75;100.00
65880;BME280;52661;51.364;6.054;2023-04-09T08:45:31;102121.31;;;10.78;100.00
65880;BME280;52661;51.364;6.054;2023-04-09T08:47:56;102119.91;;;10.84;100.00
65880;BME280;52661;51.364;6.054;2023-04-09T08:50:30;102121.31;;;10.78;100.00
65880;BME280;52661;51.364;6.054;2023-04-09T08:52:57;102121.91;;;10.87;100.00
65880;BME280;52661;51.364;6.054;2023-04-09T08:55:23;102123.91;;;10.90;100.00
65880;BME280;52661;51.364;6.054;2023-04-09T08:57:48;102127.75;;;10.89;100.00
65880;BME280;52661;51.364;6.054;2023-04-09T09:00:13;102110.91;;;11.18;100.00
65880;BME280;52661;51.364;6.054;2023-04-09T09:05:40;102110.31;;;11.48;100.00
65880;BME280;52661;51.364;6.054;2023-04-09T09:08:10;102109.88;;;11.46;100.00
65880;BME280;52661;51.364;6.054;2023-04-09T09:10:41;102105.53;;;11.41;100.00
65880;BME280;52661;51.364;6.054;2023-04-09T09:13:35;102106.59;;;11.36;100.00
65880;BME280;52661;51.364;6.054;2023-04-09T09:16:13;102096.84;;;11.55;100.00
65880;BME280;52661;51.364;6.054;2023-04-09T09:18:41;102101.88;;;11.53;100.00
65880;BME280;52661;51.364;6.054;2023-04-09T09:21:14;102112.81;;;11.56;100.00
65880;BME280;52661;51.364;6.054;2023-04-09T09:23:39;102104.84;;;11.67;100.00
65880;BME280;52661;51.364;6.054;2023-04-09T09:28:37;102086.06;;;12.04;100.00
65880;BME280;52661;51.364;6.054;2023-04-09T09:31:09;102089.81;;;11.96;100.00
65880;BME280;52661;51.364;6.054;2023-04-09T09:33:36;102094.28;;;12.07;100.00
65880;BME280;52661;51.364;6.054;2023-04-09T09:36:02;102091.56;;;12.07;100.00
65880;BME280;52661;51.364;6.054;2023-04-09T09:38:30;102099.44;;;12.16;100.00
65880;BME280;52661;51.364;6.054;2023-04-09T09:40:56;102084.22;;;12.38;100.00
65880;BME280;52661;51.364;6.054;2023-04-09T09:43:23;102087.34;;;12.36;99.91
65880;BME280;52661;51.364;6.054;2023-04-09T09:45:48;102088.31;;;12.24;90.24
65880;BME280;52661;51.364;6.054;2023-04-09T09:48:14;102089.84;;;12.22;89.78
65880;BME280;52661;51.364;6.054;2023-04-09T09:50:40;102085.69;;;12.58;100.00
65880;BME280;52661;51.364;6.054;2023-04-09T09:53:08;102092.69;;;12.59;92.68
65880;BME280;52661;51.364;6.054;2023-04-09T09:55:37;102096.91;;;12.53;88.36
65880;BME280;52661;51.364;6.054;2023-04-09T09:58:27;102087.75;;;12.38;93.09
65880;BME280;52661;51.364;6.054;2023-04-09T10:00:51;102080.00;;;12.40;94.82
65880;BME280;52661;51.364;6.054;2023-04-09T10:03:36;102091.16;;;12.58;88.66
65880;BME280;52661;51.364;6.054;2023-04-09T10:06:02;102086.47;;;12.58;94.44
65880;BME280;52661;51.364;6.054;2023-04-09T10:08:30;102080.97;;;12.84;100.00
65880;BME280;52661;51.364;6.054;2023-04-09T10:10:57;102089.72;;;12.97;100.00
65880;BME280;52661;51.364;6.054;2023-04-09T10:13:45;102085.84;;;12.98;94.22
65880;BME280;52661;51.364;6.054;2023-04-09T10:16:13;102082.28;;;12.94;97.91
65880;BME280;52661;51.364;6.054;2023-04-09T10:18:40;102072.22;;;12.98;93.22
65880;BME280;52661;51.364;6.054;2023-04-09T10:21:22;102065.66;;;13.06;97.78
65880;BME280;52661;51.364;6.054;2023-04-09T10:23:51;102071.81;;;12.70;97.77
65880;BME280;52661;51.364;6.054;2023-04-09T10:26:18;102072.81;;;12.55;96.92
65880;BME280;52661;51.364;6.054;2023-04-09T10:28:44;102066.66;;;12.91;97.70
65880;BME280;52661;51.364;6.054;2023-04-09T10:31:09;102068.16;;;13.18;97.38
65880;BME280;52661;51.364;6.054;2023-04-09T10:33:36;102061.66;;;12.97;90.42
65880;BME280;52661;51.364;6.054;2023-04-09T10:36:04;102066.44;;;13.07;93.23
65880;BME280;52661;51.364;6.054;2023-04-09T10:41:23;102065.88;;;13.61;98.99
65880;BME280;52661;51.364;6.054;2023-04-09T10:43:49;102056.00;;;13.49;90.21
65880;BME280;52661;51.364;6.054;2023-04-09T10:46:34;102059.66;;;13.64;95.29
65880;BME280;52661;51.364;6.054;2023-04-09T10:49:08;102055.41;;;13.66;93.38
65880;BME280;52661;51.364;6.054;2023-04-09T10:51:34;102066.59;;;13.54;92.72
65880;BME280;52661;51.364;6.054;2023-04-09T10:54:00;102054.13;;;13.57;95.96
65880;BME280;52661;51.364;6.054;2023-04-09T10:56:25;102059.31;;;13.28;93.04
65880;BME280;52661;51.364;6.054;2023-04-09T10:58:51;102054.31;;;13.01;99.23
65880;BME280;52661;51.364;6.054;2023-04-09T11:01:22;102049.53;;;12.91;100.00
65880;BME280;52661;51.364;6.054;2023-04-09T11:04:08;102039.66;;;12.79;93.04
65880;BME280;52661;51.364;6.054;2023-04-09T11:06:37;102027.97;;;12.78;100.00
65880;BME280;52661;51.364;6.054;2023-04-09T11:09:04;102042.34;;;13.09;100.00
65880;BME280;52661;51.364;6.054;2023-04-09T11:11:29;102036.28;;;13.63;100.00
65880;BME280;52661;51.364;6.054;2023-04-09T11:13:58;102033.13;;;14.12;100.00
65880;BME280;52661;51.364;6.054;2023-04-09T11:16:28;102037.50;;;14.27;96.94
65880;BME280;52661;51.364;6.054;2023-04-09T11:18:53;102027.38;;;14.27;98.92
65880;BME280;52661;51.364;6.054;2023-04-09T11:21:20;102031.63;;;14.18;82.79
65880;BME280;52661;51.364;6.054;2023-04-09T11:23:51;102036.88;;;14.51;98.62
65880;BME280;52661;51.364;6.054;2023-04-09T11:26:22;102022.84;;;14.49;82.90
65880;BME280;52661;51.364;6.054;2023-04-09T11:28:47;102035.72;;;14.49;88.37
65880;BME280;52661;51.364;6.054;2023-04-09T11:31:13;102023.69;;;14.64;87.85
65880;BME280;52661;51.364;6.054;2023-04-09T11:33:38;102032.72;;;14.75;94.37
65880;BME280;52661;51.364;6.054;2023-04-09T11:36:04;102024.13;;;14.76;90.98
65880;BME280;52661;51.364;6.054;2023-04-09T11:38:30;102029.19;;;14.74;84.72
65880;BME280;52661;51.364;6.054;2023-04-09T11:40:56;102024.13;;;14.76;90.96
65880;BME280;52661;51.364;6.054;2023-04-09T11:43:23;102028.13;;;15.00;86.53
65880;BME280;52661;51.364;6.054;2023-04-09T11:45:48;102028.44;;;14.85;79.42
65880;BME280;52661;51.364;6.054;2023-04-09T11:48:15;102026.84;;;14.73;82.70
65880;BME280;52661;51.364;6.054;2023-04-09T11:50:42;102034.66;;;14.71;81.70
65880;BME280;52661;51.364;6.054;2023-04-09T11:53:21;102023.06;;;14.23;86.85
65880;BME280;52661;51.364;6.054;2023-04-09T11:55:50;102018.53;;;14.45;90.23
65880;BME280;52661;51.364;6.054;2023-04-09T11:58:16;102017.81;;;14.62;87.18
65880;BME280;52661;51.364;6.054;2023-04-09T12:00:41;102023.34;;;14.79;74.67
65880;BME280;52661;51.364;6.054;2023-04-09T12:03:09;102013.22;;;14.94;73.26
65880;BME280;52661;51.364;6.054;2023-04-09T12:05:34;102012.06;;;14.92;73.17
65880;BME280;52661;51.364;6.054;2023-04-09T12:08:02;102023.03;;;15.02;72.84
65880;BME280;52661;51.364;6.054;2023-04-09T12:10:32;102019.94;;;15.21;74.58
65880;BME280;52661;51.364;6.054;2023-04-09T12:13:08;102017.22;;;15.32;77.88
65880;BME280;52661;51.364;6.054;2023-04-09T12:15:39;102020.34;;;15.27;76.82
65880;BME280;52661;51.364;6.054;2023-04-09T12:18:11;102014.84;;;15.16;75.03
65880;BME280;52661;51.364;6.054;2023-04-09T12:20:40;102012.13;;;15.20;76.42
65880;BME280;52661;51.364;6.054;2023-04-09T12:23:09;102007.44;;;15.24;81.16
65880;BME280;52661;51.364;6.054;2023-04-09T12:25:36;102013.34;;;15.40;78.72
65880;BME280;52661;51.364;6.054;2023-04-09T12:28:05;102023.91;;;15.49;74.90
65880;BME280;52661;51.364;6.054;2023-04-09T12:30:31;102018.44;;;15.63;69.43
65880;BME280;52661;51.364;6.054;2023-04-09T12:32:57;102020.00;;;15.53;68.74
65880;BME280;52661;51.364;6.054;2023-04-09T12:35:23;102013.75;;;15.63;70.12
65880;BME280;52661;51.364;6.054;2023-04-09T12:37:48;102015.72;;;15.88;70.12
65880;BME280;52661;51.364;6.054;2023-04-09T12:40:14;102017.69;;;15.80;66.82
65880;BME280;52661;51.364;6.054;2023-04-09T12:42:40;102005.94;;;15.76;68.56
65880;BME280;52661;51.364;6.054;2023-04-09T12:45:08;102005.50;;;15.92;72.16
65880;BME280;52661;51.364;6.054;2023-04-09T12:47:34;102008.66;;;15.34;71.31
65880;BME280;52661;51.364;6.054;2023-04-09T12:49:59;101996.50;;;15.31;73.07
65880;BME280;52661;51.364;6.054;2023-04-09T12:52:25;101993.03;;;15.80;66.60
65880;BME280;52661;51.364;6.054;2023-04-09T12:54:51;102000.06;;;16.02;60.47
65880;BME280;52661;51.364;6.054;2023-04-09T12:57:16;102003.94;;;16.08;64.79
65880;BME280;52661;51.364;6.054;2023-04-09T12:59:42;102001.19;;;16.19;71.70